Time;durP1;ratioP1;P1;durP2;ratioP2;P2;SDS_P1;SDS_P2;PMS_P1;PMS_P2;Temp;Humidity;BMP_temperature;BMP_pressure;BME280_temperature;BME280_humidity;BME280_pressure;Samples;Min_cycle;Max_cycle;Signal;HPM_P1;HPM_P2
2022/05/26 00:00:38;;;;;;;;;;;;;;;16.61;51.15;100250.09;1089168;46;19942;-82
2022/05/26 00:01:41;;;;;;;;;;;;;;;16.64;51.18;100247.88;1088470;46;20528;-80
2022/05/26 00:02:47;;;;;;;;;;;;;;;16.58;51.20;100245.91;1088611;54;19923;-83
2022/05/26 00:03:51;;;;;;;;;;;;;;;16.61;51.17;100250.97;1090637;46;19957;-80
2022/05/26 00:04:55;;;;;;;;;;;;;;;16.60;51.09;100251.97;1088474;54;19944;-82
2022/05/26 00:05:56;;;;;;;;;;;;;;;16.66;50.78;100253.94;1091427;46;19939;-81
2022/05/26 00:07:00;;;;;;;;;;;;;;;16.71;51.16;100252.56;1089385;39;20381;-81
2022/05/26 00:08:01;;;;;;;;;;;;;;;16.74;50.77;100249.50;1088387;54;19938;-81
2022/05/26 00:09:05;;;;;;;;;;;;;;;16.73;50.85;100250.50;1088380;54;19957;-81
2022/05/26 00:10:07;;;;;;;;;;;;;;;16.75;51.01;100251.19;1088188;54;20445;-82
2022/05/26 00:11:12;;;;;;;;;;;;;;;16.73;50.98;100258.63;1088332;54;20701;-81
2022/05/26 00:12:16;;;;;;;;;;;;;;;16.65;51.05;100246.88;1088398;54;19938;-81
2022/05/26 00:13:17;;;;;;;;;;;;;;;16.62;51.42;100246.38;1088393;54;19954;-81
2022/05/26 00:14:21;;;;;;;;;;;;;;;16.60;51.79;100259.22;1088391;54;19942;-81
2022/05/26 00:15:22;;;;;;;;;;;;;;;16.60;51.93;100249.28;1088384;54;19943;-80
2022/05/26 00:16:29;;;;;;;;;;;;;;;16.68;51.44;100254.63;1088379;54;19927;-82
2022/05/26 00:17:30;;;;;;;;;;;;;;;16.61;52.03;100253.66;1088383;54;20530;-81
2022/05/26 00:18:34;;;;;;;;;;;;;;;16.59;51.82;100263.78;1088430;54;19926;-81
2022/05/26 00:19:37;;;;;;;;;;;;;;;16.65;51.62;100252.25;1088261;54;19943;-84
2022/05/26 00:20:40;;;;;;;;;;;;;;;16.69;51.86;100256.28;1088618;46;19939;-85
2022/05/26 00:21:45;;;;;;;;;;;;;;;16.63;51.83;100254.28;1088347;54;19927;-81
2022/05/26 00:22:46;;;;;;;;;;;;;;;16.66;51.64;100248.53;1088518;46;19958;-84
2022/05/26 00:23:50;;;;;;;;;;;;;;;16.66;52.00;100253.94;1089362;46;19983;-84
2022/05/26 00:24:53;;;;;;;;;;;;;;;16.69;52.00;100253.59;1090245;46;20003;-84
2022/05/26 00:25:57;;;;;;;;;;;;;;;16.79;51.73;100257.91;1088503;54;20344;-83
2022/05/26 00:26:58;;;;;;;;;;;;;;;16.75;51.85;100256.56;1088517;54;19927;-84
2022/05/26 00:28:02;;;;;;;;;;;;;;;16.81;51.52;100250.47;1091002;46;19958;-81
2022/05/26 00:29:20;;;;;;;;;;;;;;;16.81;51.79;100255.88;1088497;54;19943;-81
2022/05/26 00:30:23;;;;;;;;;;;;;;;16.72;51.92;100255.09;1094560;46;19923;-83
2022/05/26 00:31:30;;;;;;;;;;;;;;;16.64;51.93;100255.97;1088509;54;19923;-83
2022/05/26 00:32:31;;;;;;;;;;;;;;;16.65;52.16;100254.13;1088503;54;20653;-82
2022/05/26 00:33:35;;;;;;;;;;;;;;;16.61;51.95;100253.66;1088799;46;19955;-81
2022/05/26 00:34:54;;;;;;;;;;;;;;;16.70;52.08;100254.41;1089287;46;19942;-81
2022/05/26 00:36:01;;;;;;;;;;;;;;;16.73;51.85;100269.41;1090662;46;19930;-81
2022/05/26 00:37:08;;;;;;;;;;;;;;;16.69;51.93;100264.38;1089833;46;19995;-81
2022/05/26 00:38:10;;;;;;;;;;;;;;;16.63;52.04;100261.56;1088096;54;19943;-81
2022/05/26 00:39:16;;;;;;;;;;;;;;;16.67;52.16;100261.03;1087966;54;19950;-80
2022/05/26 00:40:18;;;;;;;;;;;;;;;16.72;51.83;100265.88;1089227;46;19966;-82
2022/05/26 00:41:22;;;;;;;;;;;;;;;16.69;51.95;100258.13;1087946;54;20002;-82
2022/05/26 00:42:23;;;;;;;;;;;;;;;16.68;52.04;100264.56;1087981;54;19973;-82
2022/05/26 00:43:28;;;;;;;;;;;;;;;16.72;52.15;100254.25;1088894;39;20852;-81
2022/05/26 00:44:29;;;;;;;;;;;;;;;16.68;52.31;100261.84;1087980;54;19943;-80
2022/05/26 00:45:37;;;;;;;;;;;;;;;16.71;52.26;100264.19;1087963;54;19994;-83
2022/05/26 00:46:44;;;;;;;;;;;;;;;16.75;52.10;100261.97;1087909;54;19946;-83
2022/05/26 00:47:49;;;;;;;;;;;;;;;16.76;51.95;100260.97;1088378;47;20018;-82
2022/05/26 00:48:51;;;;;;;;;;;;;;;16.84;51.66;100261.75;1088013;54;19971;-83
2022/05/26 00:49:56;;;;;;;;;;;;;;;16.77;51.80;100260.78;1087964;54;19942;-82
2022/05/26 00:51:00;;;;;;;;;;;;;;;16.81;52.15;100258.56;1087915;54;19950;-84
2022/05/26 00:52:05;;;;;;;;;;;;;;;16.82;51.91;100257.53;1087921;54;19942;-85
2022/05/26 00:53:12;;;;;;;;;;;;;;;16.79;52.20;100263.31;1087418;54;19943;-83
2022/05/26 00:54:19;;;;;;;;;;;;;;;16.77;52.04;100265.34;1092503;39;20966;-83
2022/05/26 00:55:23;;;;;;;;;;;;;;;16.82;52.02;100263.78;1087963;54;19942;-83
2022/05/26 00:56:29;;;;;;;;;;;;;;;16.82;51.81;100263.78;1088233;46;19977;-83
2022/05/26 00:57:35;;;;;;;;;;;;;;;16.78;52.08;100267.03;1087876;54;19942;-83
2022/05/26 00:58:40;;;;;;;;;;;;;;;16.74;52.07;100265.69;1087983;54;19949;-83
2022/05/26 00:59:47;;;;;;;;;;;;;;;16.75;52.05;100261.97;1087930;54;19934;-84
2022/05/26 01:00:49;;;;;;;;;;;;;;;16.73;52.28;100270.25;1087849;54;19950;-84
2022/05/26 01:01:58;;;;;;;;;;;;;;;16.73;52.57;100266.72;1087894;54;19943;-83
2022/05/26 01:03:01;;;;;;;;;;;;;;;16.71;52.64;100268.78;1089368;46;20609;-80
2022/05/26 01:04:10;;;;;;;;;;;;;;;16.77;52.47;100263.47;1087913;54;19943;-83
2022/05/26 01:05:15;;;;;;;;;;;;;;;16.83;52.19;100265.47;1087962;54;19926;-83
2022/05/26 01:06:19;;;;;;;;;;;;;;;16.83;52.07;100259.22;1087888;54;20582;-82
2022/05/26 01:07:24;;;;;;;;;;;;;;;16.79;52.25;100263.31;1087904;54;19949;-82
2022/05/26 01:08:28;;;;;;;;;;;;;;;16.79;52.18;100258.75;1088318;39;20646;-81
2022/05/26 01:09:32;;;;;;;;;;;;;;;16.86;51.98;100264.25;1089323;39;20494;-82
2022/05/26 01:10:33;;;;;;;;;;;;;;;16.89;51.55;100266.59;1087867;54;19949;-80
2022/05/26 01:11:38;;;;;;;;;;;;;;;16.93;51.48;100262.53;1088320;39;20685;-81
2022/05/26 01:12:39;;;;;;;;;;;;;;;16.78;51.88;100258.94;1087896;54;19966;-84
2022/05/26 01:13:45;;;;;;;;;;;;;;;16.93;51.66;100264.38;1087906;54;19950;-81
2022/05/26 01:14:48;;;;;;;;;;;;;;;16.95;51.79;100262.38;1087890;54;19942;-83
2022/05/26 01:15:56;;;;;;;;;;;;;;;16.90;51.74;100264.75;1087949;54;19926;-85
2022/05/26 01:17:07;;;;;;;;;;;;;;;16.96;51.64;100264.88;1087819;54;19967;-82
2022/05/26 01:18:15;;;;;;;;;;;;;;;17.02;51.59;100259.78;1087888;54;19943;-79
2022/05/26 01:19:29;;;;;;;;;;;;;;;16.97;51.63;100265.72;1087896;54;19967;-82
2022/05/26 01:20:37;;;;;;;;;;;;;;;16.87;52.11;100259.69;1087889;54;19965;-83
2022/05/26 01:21:40;;;;;;;;;;;;;;;16.82;51.81;100257.53;1087721;54;19935;-83
2022/05/26 01:22:59;;;;;;;;;;;;;;;16.87;51.74;100260.53;1087690;54;19943;-81
2022/05/26 01:24:27;;;;;;;;;;;;;;;16.97;51.86;100260.31;1089850;39;20850;-85
2022/05/26 01:25:48;;;;;;;;;;;;;;;16.84;52.16;100255.50;1087925;54;19949;-84
2022/05/26 01:27:15;;;;;;;;;;;;;;;16.83;51.91;100259.22;1087917;54;19942;-84
2022/05/26 01:28:24;;;;;;;;;;;;;;;16.82;52.31;100257.53;1087920;54;19942;-83
2022/05/26 01:29:58;;;;;;;;;;;;;;;16.78;52.20;100256.22;1087880;54;19934;-84
2022/05/26 01:31:13;;;;;;;;;;;;;;;16.83;52.15;100251.97;1087608;54;19942;-83
2022/05/26 01:32:20;;;;;;;;;;;;;;;16.88;51.82;100246.03;1087628;54;19976;-83
2022/05/26 01:33:33;;;;;;;;;;;;;;;16.85;52.27;100254.47;1087838;54;19955;-83
2022/05/26 01:34:40;;;;;;;;;;;;;;;16.88;51.98;100254.13;1091074;39;20571;-83
2022/05/26 01:35:51;;;;;;;;;;;;;;;16.82;52.25;100253.00;1088159;54;19942;-82
2022/05/26 01:37:00;;;;;;;;;;;;;;;16.91;51.84;100245.66;1088305;54;19957;-81
2022/05/26 01:38:09;;;;;;;;;;;;;;;16.89;52.01;100258.50;1089355;46;19930;-84
2022/05/26 01:39:18;;;;;;;;;;;;;;;16.85;52.16;100257.19;1089791;47;19930;-83
2022/05/26 01:40:23;;;;;;;;;;;;;;;16.83;51.82;100253.81;1088844;46;19939;-84
2022/05/26 01:41:34;;;;;;;;;;;;;;;16.74;52.25;100254.91;1087976;54;20701;-82
2022/05/26 01:42:40;;;;;;;;;;;;;;;16.79;51.87;100253.34;1087971;54;19943;-84
2022/05/26 01:43:49;;;;;;;;;;;;;;;16.81;51.86;100253.19;1088028;54;19938;-85
2022/05/26 01:44:53;;;;;;;;;;;;;;;16.85;52.12;100249.09;1088468;47;20678;-83
2022/05/26 01:46:00;;;;;;;;;;;;;;;16.79;52.03;100255.22;1087957;54;19930;-85
2022/05/26 01:47:09;;;;;;;;;;;;;;;16.81;52.07;100262.09;1088412;39;20624;-83
2022/05/26 01:48:16;;;;;;;;;;;;;;;16.82;51.82;100247.59;1092308;39;21167;-81
2022/05/26 01:49:20;;;;;;;;;;;;;;;16.77;52.24;100246.44;1087562;54;20006;-84
2022/05/26 01:50:28;;;;;;;;;;;;;;;16.76;52.08;100253.72;1088012;54;19950;-83
2022/05/26 01:51:33;;;;;;;;;;;;;;;16.73;52.42;100255.91;1087986;54;19943;-82
2022/05/26 01:52:40;;;;;;;;;;;;;;;16.68;52.41;100251.91;1087885;54;19950;-84
2022/05/26 01:53:47;;;;;;;;;;;;;;;16.69;52.36;100256.28;1087668;54;19967;-83
2022/05/26 01:54:53;;;;;;;;;;;;;;;16.76;52.17;100247.47;1087948;54;19939;-83
2022/05/26 01:56:00;;;;;;;;;;;;;;;16.75;52.49;100254.75;1087993;54;19950;-83
2022/05/26 01:57:03;;;;;;;;;;;;;;;16.75;52.47;100260.13;1087935;54;19946;-86
2022/05/26 01:58:12;;;;;;;;;;;;;;;16.77;52.29;100249.97;1088020;54;19959;-84
2022/05/26 01:59:16;;;;;;;;;;;;;;;16.81;52.09;100250.47;1087959;54;19938;-83
2022/05/26 02:00:21;;;;;;;;;;;;;;;16.86;51.74;100258.03;1088002;54;19949;-85
2022/05/26 02:01:24;;;;;;;;;;;;;;;16.88;51.46;100255.97;1087940;54;19958;-84
2022/05/26 02:02:32;;;;;;;;;;;;;;;16.90;51.46;100257.50;1087972;54;19943;-84
2022/05/26 02:03:36;;;;;;;;;;;;;;;16.85;51.70;100251.78;1088042;54;19972;-82
2022/05/26 02:04:44;;;;;;;;;;;;;;;16.81;51.77;100259.41;1097041;39;20448;-84
2022/05/26 02:05:48;;;;;;;;;;;;;;;16.94;51.15;100252.59;1087951;54;19950;-87
2022/05/26 02:06:54;;;;;;;;;;;;;;;16.93;51.40;100246.34;1088071;54;19939;-84
2022/05/26 02:07:58;;;;;;;;;;;;;;;16.91;51.12;100256.44;1088251;47;19941;-82
2022/05/26 02:09:06;;;;;;;;;;;;;;;16.93;51.33;100253.59;1088242;54;20153;-85
2022/05/26 02:10:09;;;;;;;;;;;;;;;16.90;51.40;100254.78;1087753;54;19976;-81
2022/05/26 02:11:15;;;;;;;;;;;;;;;16.80;51.52;100249.63;1088664;39;20714;-82
2022/05/26 02:12:19;;;;;;;;;;;;;;;16.80;51.42;100249.63;1087917;54;19968;-81
2022/05/26 02:13:25;;;;;;;;;;;;;;;16.86;51.09;100252.63;1091749;39;20536;-82
2022/05/26 02:14:30;;;;;;;;;;;;;;;16.79;51.66;100257.91;1088215;54;20621;-83
2022/05/26 02:15:37;;;;;;;;;;;;;;;16.78;51.65;100257.06;1088211;54;19994;-84
2022/05/26 02:16:44;;;;;;;;;;;;;;;16.82;51.32;100258.38;1088250;54;19946;-83
2022/05/26 02:17:51;;;;;;;;;;;;;;;16.83;51.48;100259.22;1088223;54;19952;-84
2022/05/26 02:18:56;;;;;;;;;;;;;;;16.83;51.49;100267.31;1095345;39;20516;-84
2022/05/26 02:20:02;;;;;;;;;;;;;;;16.80;51.35;100262.28;1088203;54;20003;-83
2022/05/26 02:21:06;;;;;;;;;;;;;;;16.82;51.57;100269.19;1088063;54;19954;-82
2022/05/26 02:22:11;;;;;;;;;;;;;;;16.84;51.37;100260.91;1088121;54;19939;-83
2022/05/26 02:23:18;;;;;;;;;;;;;;;16.88;51.32;100266.78;1088211;54;19950;-82
2022/05/26 02:24:22;;;;;;;;;;;;;;;16.87;51.21;100265.94;1088190;54;19942;-85
2022/05/26 02:25:27;;;;;;;;;;;;;;;16.84;51.64;100271.69;1088206;54;20042;-83
2022/05/26 02:26:29;;;;;;;;;;;;;;;16.85;51.49;100267.97;1088195;54;19934;-85
2022/05/26 02:27:34;;;;;;;;;;;;;;;16.80;51.42;100268.53;1087918;54;19943;-82
2022/05/26 02:29:52;;;;;;;;;;;;;;;16.93;51.33;100270.63;1087695;54;19942;-82
2022/05/26 02:30:57;;;;;;;;;;;;;;;16.87;51.55;100263.25;1087747;54;19995;-85
2022/05/26 02:31:58;;;;;;;;;;;;;;;16.80;51.49;100267.69;1087742;54;19958;-84
2022/05/26 02:33:07;;;;;;;;;;;;;;;16.78;51.85;100269.72;1091291;39;20542;-81
2022/05/26 02:34:09;;;;;;;;;;;;;;;16.87;51.39;100265.94;1088074;54;19943;-81
2022/05/26 02:35:14;;;;;;;;;;;;;;;16.89;51.47;100263.91;1090590;39;20953;-82
2022/05/26 02:36:15;;;;;;;;;;;;;;;16.94;51.38;100268.81;1092685;39;20794;-83
2022/05/26 02:37:20;;;;;;;;;;;;;;;16.94;51.12;100266.09;1088044;54;19950;-84
2022/05/26 02:38:22;;;;;;;;;;;;;;;16.84;51.08;100263.59;1088086;54;19949;-81
2022/05/26 02:39:26;;;;;;;;;;;;;;;16.90;50.99;100264.75;1088108;54;19954;-84
2022/05/26 02:40:28;;;;;;;;;;;;;;;16.83;51.43;100259.22;1088101;54;19942;-83
2022/05/26 02:41:32;;;;;;;;;;;;;;;16.84;51.29;100256.34;1090561;31;20547;-82
2022/05/26 02:42:36;;;;;;;;;;;;;;;16.77;51.32;100254.53;1088076;54;19947;-84
2022/05/26 02:43:37;;;;;;;;;;;;;;;16.74;51.46;100263.00;1088134;54;19967;-84
2022/05/26 02:44:42;;;;;;;;;;;;;;;16.79;51.44;100257.91;1088128;54;20812;-82
2022/05/26 02:45:49;;;;;;;;;;;;;;;16.84;51.10;100255.50;1088091;54;19942;-84
2022/05/26 02:46:58;;;;;;;;;;;;;;;16.75;51.31;100257.44;1088073;54;19945;-83
2022/05/26 02:48:07;;;;;;;;;;;;;;;16.84;51.35;100255.50;1088148;54;19949;-84
2022/05/26 02:49:20;;;;;;;;;;;;;;;16.78;51.40;100261.63;1088135;54;20677;-82
2022/05/26 02:50:31;;;;;;;;;;;;;;;16.87;51.18;100260.53;1088084;54;19958;-83
2022/05/26 02:51:37;;;;;;;;;;;;;;;16.82;51.37;100262.94;1088018;54;19942;-81
2022/05/26 02:52:44;;;;;;;;;;;;;;;16.78;51.13;100261.63;1088083;54;19942;-83
2022/05/26 02:53:51;;;;;;;;;;;;;;;16.75;51.37;100261.97;1088038;54;19950;-82
2022/05/26 02:55:04;;;;;;;;;;;;;;;16.80;51.26;100263.13;1088078;54;20646;-83
2022/05/26 02:56:11;;;;;;;;;;;;;;;16.92;50.54;100258.13;1088077;54;19959;-83
2022/05/26 02:57:17;;;;;;;;;;;;;;;16.81;50.92;100255.88;1087984;54;19943;-82
2022/05/26 02:58:22;;;;;;;;;;;;;;;16.85;50.72;100267.97;1088072;54;19949;-82
2022/05/26 02:59:33;;;;;;;;;;;;;;;16.87;50.88;100267.78;1088046;54;19943;-83
2022/05/26 03:00:40;;;;;;;;;;;;;;;16.89;50.83;100263.91;1087989;54;19943;-81
2022/05/26 03:01:47;;;;;;;;;;;;;;;16.92;50.73;100260.81;1088052;54;19943;-82
2022/05/26 03:02:57;;;;;;;;;;;;;;;16.89;50.70;100260.34;1088029;54;20779;-83
2022/05/26 03:04:03;;;;;;;;;;;;;;;16.79;51.17;100263.31;1088080;54;19939;-82
2022/05/26 03:05:10;;;;;;;;;;;;;;;16.76;51.28;100269.06;1088009;54;19931;-84
2022/05/26 03:06:14;;;;;;;;;;;;;;;16.77;50.86;100265.34;1088045;54;19943;-84
2022/05/26 03:07:20;;;;;;;;;;;;;;;16.76;50.96;100269.06;1088001;54;19946;-81
2022/05/26 03:08:23;;;;;;;;;;;;;;;16.70;51.30;100265.22;1088088;54;19958;-84
2022/05/26 03:09:27;;;;;;;;;;;;;;;16.81;50.81;100269.38;1088044;54;19951;-81
2022/05/26 03:10:30;;;;;;;;;;;;;;;16.85;50.62;100259.88;1088056;54;19953;-84
2022/05/26 03:11:43;;;;;;;;;;;;;;;16.76;50.85;100264.53;1088035;54;19959;-83
2022/05/26 03:12:45;;;;;;;;;;;;;;;16.80;50.76;100267.69;1088000;54;20005;-81
2022/05/26 03:13:50;;;;;;;;;;;;;;;16.79;50.93;100268.72;1088029;54;19950;-84
2022/05/26 03:14:51;;;;;;;;;;;;;;;16.71;51.30;100264.19;1088034;54;19949;-82
2022/05/26 03:17:05;;;;;;;;;;;;;;;16.68;51.38;100268.09;1084145;54;19977;-77
2022/05/26 03:18:06;;;;;;;;;;;;;;;16.72;51.15;100267.75;1083994;54;20448;-78
2022/05/26 03:19:15;;;;;;;;;;;;;;;16.67;51.32;100266.44;1084346;54;19946;-77
2022/05/26 03:20:18;;;;;;;;;;;;;;;16.73;50.99;100272.09;1084652;39;20345;-77
2022/05/26 03:21:22;;;;;;;;;;;;;;;16.63;51.26;100270.50;1084054;54;19947;-77
2022/05/26 03:22:23;;;;;;;;;;;;;;;16.69;51.29;100271.63;1084337;54;19954;-77
2022/05/26 03:23:27;;;;;;;;;;;;;;;16.63;51.19;100270.50;1084566;54;19981;-77
2022/05/26 03:24:29;;;;;;;;;;;;;;;16.57;51.48;100265.81;1084590;54;19957;-78
2022/05/26 03:25:33;;;;;;;;;;;;;;;16.66;51.10;100267.44;1084813;54;19938;-77
2022/05/26 03:26:34;;;;;;;;;;;;;;;16.60;51.36;100273.56;1084534;54;19973;-77
2022/05/26 03:27:38;;;;;;;;;;;;;;;16.57;51.54;100271.22;1084563;54;20426;-77
2022/05/26 03:28:39;;;;;;;;;;;;;;;16.52;51.53;100276.31;1084579;54;19951;-77
2022/05/26 03:29:43;;;;;;;;;;;;;;;16.67;51.28;100271.00;1084719;54;19954;-78
2022/05/26 03:30:44;;;;;;;;;;;;;;;16.61;51.25;100277.09;1084528;54;19991;-77
2022/05/26 03:31:48;;;;;;;;;;;;;;;16.53;51.76;100275.31;1084238;54;20038;-78
2022/05/26 03:32:49;;;;;;;;;;;;;;;16.56;51.63;100274.94;1084623;54;19939;-78
2022/05/26 03:41:32;;;;;;;;;;;;;;;16.44;51.86;100277.19;1084214;54;19939;-77
2022/05/26 03:42:34;;;;;;;;;;;;;;;16.47;51.98;100282.25;1084620;54;19947;-76
2022/05/26 03:43:39;;;;;;;;;;;;;;;16.50;51.79;100283.75;1084323;54;20003;-76
2022/05/26 03:44:41;;;;;;;;;;;;;;;16.46;52.10;100280.56;1084499;39;20336;-77
2022/05/26 03:45:45;;;;;;;;;;;;;;;16.37;52.14;100287.03;1083780;54;19953;-78
2022/05/26 03:46:47;;;;;;;;;;;;;;;16.37;52.20;100290.56;1083615;54;19947;-75
2022/05/26 03:47:51;;;;;;;;;;;;;;;16.45;51.81;100286.13;1083695;54;19957;-75
2022/05/26 03:48:52;;;;;;;;;;;;;;;16.41;51.95;100292.91;1083864;54;19954;-76
2022/05/26 03:49:56;;;;;;;;;;;;;;;16.35;51.98;100295.28;1083783;54;19954;-78
2022/05/26 03:51:02;;;;;;;;;;;;;;;16.29;52.42;100287.06;1083529;54;20449;-77
2022/05/26 03:52:04;;;;;;;;;;;;;;;16.28;52.45;100288.91;1083450;54;19969;-77
2022/05/26 03:53:08;;;;;;;;;;;;;;;16.29;52.19;100285.19;1083691;54;20042;-77
2022/05/26 03:54:09;;;;;;;;;;;;;;;16.22;52.60;100285.06;1083776;54;19946;-77
2022/05/26 03:55:13;;;;;;;;;;;;;;;16.19;52.63;100287.28;1083888;54;19958;-77
2022/05/26 03:56:14;;;;;;;;;;;;;;;16.22;52.51;100289.63;1083764;54;19951;-75
2022/05/26 03:57:23;;;;;;;;;;;;;;;16.15;53.05;100294.88;1083601;54;19953;-76
2022/05/26 03:58:25;;;;;;;;;;;;;;;16.04;53.01;100285.31;1083670;46;19969;-76
2022/05/26 03:59:29;;;;;;;;;;;;;;;16.09;52.89;100290.19;1084007;54;19947;-76
2022/05/26 04:00:30;;;;;;;;;;;;;;;16.09;53.36;100289.34;1084213;39;20006;-76
2022/05/26 04:01:34;;;;;;;;;;;;;;;16.28;52.75;100288.91;1083766;54;20437;-76
2022/05/26 04:02:35;;;;;;;;;;;;;;;16.36;52.35;100301.53;1085014;39;20665;-76
2022/05/26 04:03:39;;;;;;;;;;;;;;;16.25;52.70;100299.22;1084153;39;20326;-76
2022/05/26 04:04:41;;;;;;;;;;;;;;;16.34;52.34;100293.59;1083627;54;19947;-76
2022/05/26 04:05:45;;;;;;;;;;;;;;;16.41;52.23;100292.91;1083819;54;19992;-75
2022/05/26 04:06:49;;;;;;;;;;;;;;;16.47;52.16;100302.97;1083612;54;19958;-76
2022/05/26 04:07:54;;;;;;;;;;;;;;;16.49;52.19;100300.94;1083675;54;19939;-76
2022/05/26 04:08:56;;;;;;;;;;;;;;;16.53;52.11;100300.41;1083476;54;19947;-77
2022/05/26 04:10:00;;;;;;;;;;;;;;;16.59;51.73;100295.31;1083863;54;19950;-76
2022/05/26 04:11:04;;;;;;;;;;;;;;;16.64;51.41;100295.63;1083657;54;19946;-76
2022/05/26 04:12:05;;;;;;;;;;;;;;;16.70;51.34;100303.00;1083865;54;20029;-75
2022/05/26 04:13:09;;;;;;;;;;;;;;;16.72;51.32;100305.56;1083898;54;19947;-76
2022/05/26 04:14:10;;;;;;;;;;;;;;;16.74;51.04;100298.94;1084103;54;19946;-75
2022/05/26 04:15:15;;;;;;;;;;;;;;;16.76;51.21;100301.44;1083899;54;19955;-76
2022/05/26 04:16:16;;;;;;;;;;;;;;;16.77;51.29;100305.84;1083506;54;19972;-75
2022/05/26 04:17:20;;;;;;;;;;;;;;;16.80;50.87;100305.50;1082941;54;19946;-76
2022/05/26 04:18:21;;;;;;;;;;;;;;;16.82;50.99;100306.13;1084342;39;20366;-76
2022/05/26 04:19:25;;;;;;;;;;;;;;;16.76;51.39;100307.72;1083915;47;19958;-75
2022/05/26 04:20:26;;;;;;;;;;;;;;;16.64;51.60;100307.25;1083974;54;19962;-75
2022/05/26 04:21:30;;;;;;;;;;;;;;;16.65;51.47;100306.25;1083466;54;19950;-76
2022/05/26 04:22:35;;;;;;;;;;;;;;;16.49;52.05;100322.53;1083475;54;19938;-77
2022/05/26 04:23:38;;;;;;;;;;;;;;;16.51;52.10;100317.81;1083772;54;19946;-78
2022/05/26 04:24:39;;;;;;;;;;;;;;;16.44;52.40;100316.81;1084098;54;19953;-77
2022/05/26 04:25:43;;;;;;;;;;;;;;;16.48;52.46;100320.84;1084293;54;19995;-75
2022/05/26 04:26:44;;;;;;;;;;;;;;;16.52;51.91;100317.63;1083596;54;19947;-77
2022/05/26 04:27:48;;;;;;;;;;;;;;;16.43;52.48;100328.66;1083861;54;19939;-76
2022/05/26 04:28:50;;;;;;;;;;;;;;;16.37;52.82;100316.69;1083857;54;19954;-75
2022/05/26 04:29:53;;;;;;;;;;;;;;;16.37;52.49;100320.22;1084457;39;20341;-77
2022/05/26 04:30:55;;;;;;;;;;;;;;;16.38;52.80;100327.31;1083643;54;19947;-77
2022/05/26 04:31:59;;;;;;;;;;;;;;;16.40;52.48;100320.91;1083727;54;19951;-78
2022/05/26 04:33:00;;;;;;;;;;;;;;;16.44;52.38;100323.06;1083631;54;19942;-75
2022/05/26 04:34:03;;;;;;;;;;;;;;;16.35;52.82;100324.13;1083460;54;20422;-76
2022/05/26 04:35:05;;;;;;;;;;;;;;;16.40;52.62;100320.91;1083594;54;19951;-76
2022/05/26 04:36:09;;;;;;;;;;;;;;;16.42;52.59;100332.34;1083494;54;20030;-75
2022/05/26 04:37:10;;;;;;;;;;;;;;;16.45;52.88;100318.50;1083406;54;19974;-76
2022/05/26 04:38:18;;;;;;;;;;;;;;;16.41;52.85;100320.72;1083682;54;19947;-76
2022/05/26 04:39:20;;;;;;;;;;;;;;;16.35;52.95;100327.66;1083812;54;19947;-76
2022/05/26 04:40:24;;;;;;;;;;;;;;;16.30;53.23;100330.03;1083729;54;19954;-76
2022/05/26 04:41:25;;;;;;;;;;;;;;;16.27;53.24;100332.25;1083692;54;19971;-75
2022/05/26 04:42:29;;;;;;;;;;;;;;;16.30;53.38;100335.44;1084140;54;19953;-75
2022/05/26 04:43:31;;;;;;;;;;;;;;;16.44;52.96;100330.31;1084187;54;19939;-76
2022/05/26 04:44:36;;;;;;;;;;;;;;;16.38;53.13;100332.69;1084081;54;19939;-76
2022/05/26 04:45:40;;;;;;;;;;;;;;;16.38;53.50;100332.69;1084181;54;19964;-76
2022/05/26 04:46:42;;;;;;;;;;;;;;;16.35;53.43;100333.03;1084015;54;19938;-75
2022/05/26 04:47:45;;;;;;;;;;;;;;;16.49;52.96;100336.84;1083914;54;19990;-76
2022/05/26 04:48:47;;;;;;;;;;;;;;;16.37;53.32;100333.72;1084107;54;19951;-78
2022/05/26 04:49:50;;;;;;;;;;;;;;;16.43;53.19;100331.34;1084377;54;19938;-75
2022/05/26 04:50:52;;;;;;;;;;;;;;;16.40;53.34;100331.69;1084178;54;19946;-76
2022/05/26 04:51:56;;;;;;;;;;;;;;;16.40;53.32;100326.28;1084205;54;19954;-77
2022/05/26 04:53:00;;;;;;;;;;;;;;;16.47;53.00;100329.97;1084732;39;20359;-77
2022/05/26 04:54:05;;;;;;;;;;;;;;;16.44;53.22;100331.16;1084191;54;19954;-77
2022/05/26 04:55:09;;;;;;;;;;;;;;;16.43;53.01;100334.03;1084384;54;19939;-76
2022/05/26 04:56:11;;;;;;;;;;;;;;;16.42;53.38;100335.06;1084453;54;20038;-76
2022/05/26 04:57:15;;;;;;;;;;;;;;;16.48;52.83;100337.03;1083958;54;19962;-77
2022/05/26 04:58:16;;;;;;;;;;;;;;;16.53;52.92;100342.75;1084503;39;20334;-78
2022/05/26 04:59:21;;;;;;;;;;;;;;;16.50;52.77;100341.25;1083963;54;20053;-78
2022/05/26 05:00:25;;;;;;;;;;;;;;;16.49;52.93;100344.94;1084011;54;19939;-77
2022/05/26 05:01:27;;;;;;;;;;;;;;;16.53;52.92;100343.59;1084033;54;19983;-77
2022/05/26 05:02:32;;;;;;;;;;;;;;;16.57;52.39;100345.94;1083966;54;20433;-78
2022/05/26 05:03:33;;;;;;;;;;;;;;;16.50;52.79;100345.81;1083974;54;19947;-78
2022/05/26 05:04:37;;;;;;;;;;;;;;;16.51;52.63;100344.78;1084796;54;19938;-77
2022/05/26 05:05:39;;;;;;;;;;;;;;;16.47;52.50;100341.63;1084593;54;19950;-77
2022/05/26 05:06:43;;;;;;;;;;;;;;;16.51;52.41;100342.91;1084189;54;19947;-78
2022/05/26 05:07:47;;;;;;;;;;;;;;;16.53;52.35;100349.00;1083790;54;19946;-77
2022/05/26 05:08:48;;;;;;;;;;;;;;;16.50;52.27;100346.63;1085037;54;19947;-79
2022/05/26 05:09:54;;;;;;;;;;;;;;;16.53;52.50;100342.75;1084862;54;19974;-77
2022/05/26 05:10:57;;;;;;;;;;;;;;;16.55;52.22;100342.59;1085424;54;19950;-79
2022/05/26 05:12:00;;;;;;;;;;;;;;;16.56;52.77;100344.25;1085301;54;19984;-78
2022/05/26 05:13:05;;;;;;;;;;;;;;;16.58;52.70;100342.25;1085598;54;19946;-76
2022/05/26 05:14:06;;;;;;;;;;;;;;;16.51;52.81;100350.19;1085420;54;19981;-78
2022/05/26 05:15:11;;;;;;;;;;;;;;;16.55;52.60;100346.09;1085013;54;19938;-78
2022/05/26 05:16:16;;;;;;;;;;;;;;;16.59;52.61;100357.38;1085095;54;19938;-78
2022/05/26 05:17:21;;;;;;;;;;;;;;;16.49;52.78;100355.75;1084848;54;20429;-77
2022/05/26 05:18:23;;;;;;;;;;;;;;;16.59;52.95;100355.53;1085013;54;19946;-78
2022/05/26 05:19:27;;;;;;;;;;;;;;;16.48;53.06;100353.22;1084595;54;19969;-78
2022/05/26 05:20:30;;;;;;;;;;;;;;;16.50;52.90;100352.03;1085176;54;19946;-77
2022/05/26 05:21:34;;;;;;;;;;;;;;;16.49;53.11;100355.75;1084936;54;19947;-78
2022/05/26 05:22:41;;;;;;;;;;;;;;;16.48;52.95;100364.84;1085160;46;19958;-77
2022/05/26 05:23:44;;;;;;;;;;;;;;;16.40;53.26;100370.28;1084449;54;19976;-76
2022/05/26 05:24:52;;;;;;;;;;;;;;;16.46;52.78;100371.44;1084227;54;19971;-77
2022/05/26 05:25:57;;;;;;;;;;;;;;;16.52;52.89;100365.38;1084653;54;19946;-77
2022/05/26 05:27:02;;;;;;;;;;;;;;;16.43;53.17;100379.91;1084918;54;19972;-77
2022/05/26 05:28:09;;;;;;;;;;;;;;;16.39;53.33;100371.31;1084401;54;19942;-77
2022/05/26 05:29:14;;;;;;;;;;;;;;;16.48;53.09;100375.66;1084731;47;19946;-76
2022/05/26 05:30:20;;;;;;;;;;;;;;;16.47;53.09;100378.53;1084505;54;19938;-77
2022/05/26 05:31:25;;;;;;;;;;;;;;;16.37;52.97;100376.88;1084068;54;19946;-77
2022/05/26 05:32:31;;;;;;;;;;;;;;;16.37;52.96;100384.97;1084424;54;19970;-77
2022/05/26 05:33:34;;;;;;;;;;;;;;;16.36;53.28;100387.84;1084430;54;19946;-77
2022/05/26 05:34:40;;;;;;;;;;;;;;;16.42;53.10;100376.34;1084256;54;20464;-77
2022/05/26 05:35:46;;;;;;;;;;;;;;;16.43;53.28;100382.63;1084267;54;19947;-77
2022/05/26 05:36:48;;;;;;;;;;;;;;;16.44;53.28;100389.66;1084931;54;19951;-77
2022/05/26 05:37:52;;;;;;;;;;;;;;;16.44;53.53;100393.22;1084795;54;20450;-77
2022/05/26 05:38:53;;;;;;;;;;;;;;;16.55;53.01;100389.28;1084982;54;19947;-77
2022/05/26 05:39:59;;;;;;;;;;;;;;;16.60;53.11;100394.16;1084804;54;19953;-78
2022/05/26 05:41:03;;;;;;;;;;;;;;;16.56;53.39;100392.84;1084179;54;19954;-77
2022/05/26 05:42:08;;;;;;;;;;;;;;;16.63;53.14;100393.81;1084600;39;20364;-78
2022/05/26 05:43:10;;;;;;;;;;;;;;;16.59;52.95;100389.78;1084827;47;19938;-76